createdAt,value
2023-01-26T00:02:19.171Z,37.03
2023-01-26T00:04:45.650Z,54.45
2023-01-26T00:07:12.088Z,39.88
2023-01-26T00:09:38.520Z,42.88
2023-01-26T00:12:05.192Z,46.50
2023-01-26T00:14:49.791Z,40.28
2023-01-26T00:17:25.758Z,41.63
2023-01-26T00:19:57.162Z,44.47
2023-01-26T00:22:25.899Z,43.40
2023-01-26T00:24:52.437Z,44.05
2023-01-26T00:27:18.920Z,48.35
2023-01-26T00:29:45.415Z,43.80
2023-01-26T00:32:11.918Z,44.03
2023-01-26T00:34:38.374Z,46.78
2023-01-26T00:37:04.812Z,45.58
2023-01-26T00:39:31.279Z,46.22
2023-01-26T00:42:06.879Z,43.78
2023-01-26T00:44:33.333Z,43.55
2023-01-26T00:46:59.759Z,46.90
2023-01-26T00:49:26.216Z,49.42
2023-01-26T00:51:52.801Z,45.50
2023-01-26T00:54:19.312Z,43.55
2023-01-26T00:56:45.791Z,40.17
2023-01-26T00:59:12.359Z,48.92
2023-01-26T01:01:38.947Z,43.47
2023-01-26T01:04:05.603Z,44.13
2023-01-26T01:06:32.102Z,40.88
2023-01-26T01:08:58.674Z,39.67
2023-01-26T01:11:25.277Z,45.58
2023-01-26T01:13:51.816Z,44.85
2023-01-26T01:16:18.429Z,42.60
2023-01-26T01:18:45.394Z,46.42
2023-01-26T01:21:17.444Z,41.95
2023-01-26T01:23:44.596Z,43.50
2023-01-26T01:26:12.416Z,41.22
2023-01-26T01:28:40.786Z,44.75
2023-01-26T01:31:10.282Z,42.95
2023-01-26T01:33:37.644Z,40.40
2023-01-26T01:36:06.847Z,42.53
2023-01-26T01:38:33.700Z,41.20
2023-01-26T01:41:00.601Z,41.72
2023-01-26T01:43:28.616Z,40.38
2023-01-26T01:45:55.960Z,39.00
2023-01-26T01:48:25.298Z,40.83
2023-01-26T01:50:58.749Z,39.30
2023-01-26T01:55:59.815Z,44.85
2023-01-26T01:58:30.029Z,38.50
2023-01-26T02:00:56.810Z,36.28
2023-01-26T02:03:23.456Z,36.85
2023-01-26T02:06:06.274Z,37.55
2023-01-26T02:08:43.232Z,39.13
2023-01-26T02:11:14.600Z,41.58
2023-01-26T02:13:43.771Z,38.30
2023-01-26T02:16:10.686Z,36.55
2023-01-26T02:18:37.470Z,39.75
2023-01-26T02:21:07.714Z,38.80
2023-01-26T02:23:58.911Z,40.60
2023-01-26T02:26:31.382Z,40.75
2023-01-26T02:28:59.874Z,37.58
2023-01-26T02:31:26.870Z,38.28
2023-01-26T02:33:53.485Z,35.17
2023-01-26T02:36:21.995Z,38.20
2023-01-26T02:39:00.566Z,36.13
2023-01-26T02:41:45.989Z,36.90
2023-01-26T02:44:14.806Z,37.33
2023-01-26T02:46:41.425Z,34.85
2023-01-26T02:49:26.162Z,32.08
2023-01-26T02:51:52.857Z,36.65
2023-01-26T02:54:38.045Z,35.13
2023-01-26T02:57:04.629Z,35.83
2023-01-26T02:59:31.185Z,39.38
2023-01-26T03:01:58.429Z,37.17
2023-01-26T03:04:25.152Z,35.25
2023-01-26T03:06:51.829Z,38.80
2023-01-26T03:09:18.554Z,37.83
2023-01-26T03:11:45.171Z,34.80
2023-01-26T03:14:13.511Z,34.80
2023-01-26T03:16:40.555Z,37.00
2023-01-26T03:19:09.359Z,32.78
2023-01-26T03:21:54.995Z,38.53
2023-01-26T03:24:39.897Z,32.45
2023-01-26T03:27:27.650Z,37.65
2023-01-26T03:29:57.964Z,33.67
2023-01-26T03:32:25.634Z,34.70
2023-01-26T03:34:52.671Z,39.83
2023-01-26T03:37:22.751Z,39.10
2023-01-26T03:40:09.547Z,37.97
2023-01-26T03:42:56.233Z,40.20
2023-01-26T03:45:41.423Z,36.05
2023-01-26T03:48:29.969Z,38.00
2023-01-26T03:51:15.914Z,37.53
2023-01-26T03:54:02.320Z,39.63
2023-01-26T03:56:32.804Z,39.65
2023-01-26T03:59:13.421Z,39.90
2023-01-26T04:01:42.542Z,40.85
2023-01-26T04:04:29.989Z,38.65
2023-01-26T04:07:14.844Z,40.60
2023-01-26T04:09:41.417Z,38.20
2023-01-26T04:12:10.356Z,38.17
2023-01-26T04:14:55.454Z,35.42
2023-01-26T04:17:40.911Z,37.70
2023-01-26T04:20:26.864Z,38.70
2023-01-26T04:22:53.382Z,39.72
2023-01-26T04:25:22.137Z,35.28
2023-01-26T04:27:48.907Z,38.80
2023-01-26T04:30:16.689Z,32.85
2023-01-26T04:32:43.542Z,37.40
2023-01-26T04:35:10.822Z,36.20
2023-01-26T04:37:38.060Z,41.70
2023-01-26T04:40:06.339Z,37.33
2023-01-26T04:42:32.898Z,35.00
2023-01-26T04:44:59.428Z,35.90
2023-01-26T04:47:28.236Z,36.13
2023-01-26T04:49:55.800Z,35.17
2023-01-26T04:52:22.348Z,36.67
2023-01-26T04:54:48.887Z,38.10
2023-01-26T04:57:15.433Z,39.92
2023-01-26T04:59:41.907Z,37.10
2023-01-26T05:02:09.138Z,37.50
2023-01-26T05:04:35.702Z,35.00
2023-01-26T05:07:02.252Z,33.88
2023-01-26T05:09:28.849Z,36.78
2023-01-26T05:12:15.372Z,37.88
2023-01-26T05:14:41.934Z,34.28
2023-01-26T05:17:08.417Z,37.47
2023-01-26T05:19:34.869Z,40.45
2023-01-26T05:22:01.394Z,38.75
2023-01-26T05:24:27.895Z,34.70
2023-01-26T05:27:14.304Z,34.72
2023-01-26T05:29:40.758Z,40.35
2023-01-26T05:32:07.225Z,33.10
2023-01-26T05:34:33.777Z,32.55
2023-01-26T05:37:00.264Z,30.98
2023-01-26T05:39:26.769Z,35.38
2023-01-26T05:41:55.915Z,32.97
2023-01-26T05:44:24.731Z,31.42
2023-01-26T05:46:52.545Z,30.67
2023-01-26T05:49:19.058Z,35.05
2023-01-26T05:51:45.541Z,33.50
2023-01-26T05:54:12.084Z,31.00
2023-01-26T05:56:38.619Z,33.17
2023-01-26T05:59:05.112Z,34.78
2023-01-26T06:01:31.625Z,35.55
2023-01-26T06:03:58.113Z,31.63
2023-01-26T06:06:24.592Z,31.83
2023-01-26T06:08:51.068Z,32.35
2023-01-26T06:11:17.552Z,34.47
2023-01-26T06:13:44.038Z,32.45
2023-01-26T06:16:10.543Z,34.40
2023-01-26T06:18:37.032Z,28.90
2023-01-26T06:21:03.648Z,30.88
2023-01-26T06:23:30.119Z,25.60
2023-01-26T06:26:01.210Z,27.52
2023-01-26T06:28:30.021Z,29.35
2023-01-26T06:31:01.338Z,24.77
2023-01-26T06:33:27.906Z,26.40
2023-01-26T06:35:55.906Z,23.40
2023-01-26T06:38:22.499Z,28.50
2023-01-26T06:40:49.129Z,26.35
2023-01-26T06:43:15.570Z,26.73
2023-01-26T06:45:42.615Z,27.02
2023-01-26T06:48:09.144Z,25.20
2023-01-26T06:50:36.032Z,28.17
2023-01-26T06:53:21.027Z,23.45
2023-01-26T06:55:47.677Z,27.70
2023-01-26T06:58:14.165Z,24.50
2023-01-26T07:00:41.028Z,21.30
2023-01-26T07:03:10.461Z,22.85
2023-01-26T07:05:37.069Z,23.00
2023-01-26T07:08:06.372Z,26.35
2023-01-26T07:10:33.092Z,23.02
2023-01-26T07:12:59.622Z,27.88
2023-01-26T07:15:26.326Z,28.85
2023-01-26T07:17:52.834Z,25.83
2023-01-26T07:20:19.269Z,26.05
2023-01-26T07:22:45.769Z,22.65
2023-01-26T07:25:12.350Z,28.27
2023-01-26T07:27:38.792Z,27.05
2023-01-26T07:30:05.797Z,32.28
2023-01-26T07:32:32.282Z,24.75
2023-01-26T07:34:58.837Z,27.80
2023-01-26T07:37:29.517Z,26.17
2023-01-26T07:39:56.565Z,27.20
2023-01-26T07:42:23.348Z,25.88
2023-01-26T07:44:49.852Z,26.85
2023-01-26T07:47:16.326Z,24.63
2023-01-26T07:49:42.833Z,26.58
2023-01-26T07:52:09.258Z,25.95
2023-01-26T07:54:35.810Z,26.52
2023-01-26T07:57:02.249Z,24.75
2023-01-26T07:59:28.786Z,25.08
2023-01-26T08:01:55.389Z,24.40
2023-01-26T08:04:21.867Z,26.98
2023-01-26T08:06:51.621Z,23.02
2023-01-26T08:09:18.525Z,26.33
2023-01-26T08:11:44.974Z,22.08
2023-01-26T08:14:11.407Z,24.80
2023-01-26T08:16:38.028Z,21.70
2023-01-26T08:19:04.640Z,23.17
2023-01-26T08:21:31.106Z,21.92
2023-01-26T08:24:01.838Z,22.10
2023-01-26T08:26:29.317Z,20.90
2023-01-26T08:28:55.906Z,23.08
2023-01-26T08:31:22.820Z,21.58
2023-01-26T08:33:52.548Z,20.58
2023-01-26T08:36:22.265Z,20.67
2023-01-26T08:38:49.684Z,18.65
2023-01-26T08:41:16.250Z,21.15
2023-01-26T08:43:42.843Z,20.23
2023-01-26T08:46:09.552Z,20.50
2023-01-26T08:48:37.371Z,18.75
2023-01-26T08:51:05.504Z,21.02
2023-01-26T08:53:33.158Z,26.67
2023-01-26T08:56:04.870Z,21.80
2023-01-26T08:58:31.649Z,21.88
2023-01-26T09:00:58.225Z,21.55
2023-01-26T09:03:24.858Z,22.00
2023-01-26T09:05:51.395Z,21.13
2023-01-26T09:08:17.885Z,20.80
2023-01-26T09:10:45.233Z,25.45
2023-01-26T09:13:11.787Z,23.63
2023-01-26T09:15:38.765Z,24.48
2023-01-26T09:18:05.629Z,23.90
2023-01-26T09:20:32.156Z,23.27
2023-01-26T09:22:58.658Z,25.08
2023-01-26T09:25:25.144Z,23.75
2023-01-26T09:27:51.680Z,25.00
2023-01-26T09:30:18.271Z,23.67
2023-01-26T09:32:44.879Z,22.40
2023-01-26T09:35:14.193Z,25.35
2023-01-26T09:37:41.364Z,25.20
2023-01-26T09:40:18.292Z,22.40
2023-01-26T09:42:58.892Z,25.60
2023-01-26T09:45:35.079Z,22.13
2023-01-26T09:48:50.548Z,22.83
2023-01-26T09:51:23.873Z,21.98
2023-01-26T09:54:01.348Z,23.70
2023-01-26T09:56:30.576Z,23.98
2023-01-26T09:59:32.050Z,29.50
2023-01-26T10:02:15.983Z,28.70
2023-01-26T10:04:47.929Z,26.65
2023-01-26T10:07:15.621Z,23.10
2023-01-26T10:09:46.392Z,23.35
2023-01-26T10:12:30.445Z,24.25
2023-01-26T10:15:08.517Z,18.83
2023-01-26T10:17:38.970Z,24.23
2023-01-26T10:20:23.986Z,23.50
2023-01-26T10:22:54.217Z,25.17
2023-01-26T10:25:30.829Z,18.98
2023-01-26T10:27:57.594Z,18.73
2023-01-26T10:30:24.164Z,20.35
2023-01-26T10:32:52.775Z,21.17
2023-01-26T10:35:28.549Z,19.92
2023-01-26T10:37:56.201Z,18.75
2023-01-26T10:40:22.734Z,20.23
2023-01-26T10:42:58.125Z,18.02
2023-01-26T10:45:27.756Z,24.80
2023-01-26T10:48:24.373Z,21.77
2023-01-26T10:50:51.281Z,19.88
2023-01-26T10:53:23.534Z,20.10
2023-01-26T10:56:02.157Z,19.77
2023-01-26T10:58:49.439Z,21.17
2023-01-26T11:01:18.557Z,21.70
2023-01-26T11:04:03.393Z,23.17
2023-01-26T11:06:30.701Z,20.27
2023-01-26T11:09:28.650Z,22.02
2023-01-26T11:12:03.631Z,17.13
2023-01-26T11:14:31.593Z,21.65
2023-01-26T11:17:16.907Z,18.73
2023-01-26T11:20:02.913Z,19.45
2023-01-26T11:23:04.608Z,17.10
2023-01-26T11:26:07.931Z,15.75
2023-01-26T11:28:51.565Z,19.70
2023-01-26T11:31:39.610Z,20.77
2023-01-26T11:34:27.096Z,19.20
2023-01-26T11:37:06.041Z,20.45
2023-01-26T11:39:55.811Z,17.77
2023-01-26T11:42:41.135Z,19.00
2023-01-26T11:45:52.242Z,18.40
2023-01-26T11:48:33.242Z,19.73
2023-01-26T11:51:07.843Z,21.67
2023-01-26T11:53:46.466Z,19.38
2023-01-26T11:56:31.730Z,20.20
2023-01-26T11:59:13.333Z,19.40
2023-01-26T12:01:59.471Z,19.60
2023-01-26T12:04:26.081Z,19.02
2023-01-26T12:07:00.048Z,21.38
2023-01-26T12:09:48.988Z,24.20
2023-01-26T12:12:43.675Z,20.05
2023-01-26T12:15:17.001Z,21.67
2023-01-26T12:17:58.227Z,22.60
2023-01-26T12:20:45.793Z,18.25
2023-01-26T12:23:21.597Z,21.88
2023-01-26T12:25:55.515Z,22.17
2023-01-26T12:28:30.722Z,20.00
2023-01-26T12:31:18.621Z,20.98
2023-01-26T12:33:49.570Z,21.83
2023-01-26T12:36:31.000Z,20.85
2023-01-26T12:39:19.173Z,19.73
2023-01-26T12:42:04.275Z,22.52
2023-01-26T12:44:53.954Z,21.67
2023-01-26T12:47:29.550Z,20.20
2023-01-26T12:50:17.645Z,21.75
2023-01-26T12:53:14.378Z,22.70
2023-01-26T12:55:47.805Z,26.20
2023-01-26T12:58:35.070Z,21.95
2023-01-26T13:01:14.785Z,20.67
2023-01-26T13:03:51.831Z,21.10
2023-01-26T13:06:21.868Z,34.28
2023-01-26T13:08:57.340Z,21.83
2023-01-26T13:11:43.433Z,23.00
2023-01-26T13:14:43.461Z,17.70
2023-01-26T13:17:48.860Z,17.98
2023-01-26T13:20:27.944Z,20.70
2023-01-26T13:22:55.904Z,19.20
2023-01-26T13:25:31.536Z,18.48
2023-01-26T13:28:01.922Z,20.38
2023-01-26T13:30:31.523Z,21.48
2023-01-26T13:33:20.137Z,18.42
2023-01-26T13:35:48.219Z,18.80
2023-01-26T13:38:41.274Z,20.65
2023-01-26T13:41:12.957Z,17.17
2023-01-26T13:43:48.489Z,19.88
2023-01-26T13:46:30.849Z,22.25
2023-01-26T13:48:57.461Z,22.42
2023-01-26T13:51:37.160Z,18.95
2023-01-26T13:54:06.828Z,20.42
2023-01-26T13:56:35.679Z,19.30
2023-01-26T13:59:15.758Z,20.55
2023-01-26T14:01:50.971Z,22.20
2023-01-26T14:04:23.523Z,20.58
2023-01-26T14:06:58.692Z,18.85
2023-01-26T14:09:31.520Z,23.17
2023-01-26T14:12:05.284Z,25.90
2023-01-26T14:14:36.181Z,21.58
2023-01-26T14:17:25.323Z,20.45
2023-01-26T14:19:51.886Z,20.45
2023-01-26T14:22:19.259Z,22.08
2023-01-26T14:24:51.968Z,21.65
2023-01-26T14:27:38.113Z,22.63
2023-01-26T14:30:21.537Z,19.98
2023-01-26T14:32:48.578Z,22.00
2023-01-26T14:35:23.339Z,21.35
2023-01-26T14:37:51.027Z,19.25
2023-01-26T14:40:24.901Z,22.92
2023-01-26T14:42:53.834Z,24.55
2023-01-26T14:45:45.898Z,26.77
2023-01-26T14:48:15.287Z,28.63
2023-01-26T14:50:43.663Z,20.85
2023-01-26T14:53:21.104Z,19.33
2023-01-26T14:55:49.296Z,19.50
2023-01-26T14:58:27.798Z,23.50
2023-01-26T15:00:58.147Z,22.35
2023-01-26T15:03:27.489Z,23.42
2023-01-26T15:06:07.792Z,28.30
2023-01-26T15:08:36.257Z,21.77
2023-01-26T15:11:22.811Z,28.48
2023-01-26T15:13:55.645Z,27.70
2023-01-26T15:16:26.370Z,21.00
2023-01-26T15:19:00.686Z,25.80
2023-01-26T15:21:39.800Z,25.92
2023-01-26T15:24:13.687Z,29.63
2023-01-26T15:26:40.878Z,28.00
2023-01-26T15:29:34.657Z,28.50
2023-01-26T15:32:01.728Z,25.23
2023-01-26T15:34:39.222Z,25.52
2023-01-26T15:37:32.389Z,25.75
2023-01-26T15:39:59.397Z,19.03
2023-01-26T15:42:30.171Z,27.05
2023-01-26T15:44:57.065Z,26.63
2023-01-26T15:47:23.667Z,27.42
2023-01-26T15:49:50.488Z,24.67
2023-01-26T15:52:18.104Z,25.52
2023-01-26T15:54:45.164Z,27.42
2023-01-26T15:57:13.064Z,24.40
2023-01-26T15:59:40.297Z,27.48
2023-01-26T16:02:18.389Z,26.92
2023-01-26T16:04:45.207Z,27.83
2023-01-26T16:07:18.529Z,29.50
2023-01-26T16:09:45.367Z,28.10
2023-01-26T16:12:30.837Z,26.85
2023-01-26T16:14:58.094Z,25.80
2023-01-26T16:17:24.628Z,32.17
2023-01-26T16:19:51.161Z,27.05
2023-01-26T16:22:17.810Z,28.75
2023-01-26T16:24:45.481Z,30.77
2023-01-26T16:27:12.113Z,29.63
2023-01-26T16:29:38.604Z,24.55
2023-01-26T16:32:29.111Z,29.48
2023-01-26T16:34:55.687Z,26.00
2023-01-26T16:37:22.218Z,28.40
2023-01-26T16:39:48.716Z,25.10
2023-01-26T16:42:18.719Z,30.80
2023-01-26T16:44:46.067Z,28.05
2023-01-26T16:47:12.619Z,26.40
2023-01-26T16:49:39.109Z,31.35
2023-01-26T16:52:07.737Z,29.67
2023-01-26T16:54:34.246Z,28.70
2023-01-26T16:57:00.732Z,24.27
2023-01-26T16:59:27.252Z,29.30
2023-01-26T17:01:54.136Z,27.48
2023-01-26T17:04:20.638Z,26.65
2023-01-26T17:06:47.389Z,29.92
2023-01-26T17:09:14.228Z,27.27
2023-01-26T17:11:40.784Z,39.35
2023-01-26T17:14:08.606Z,29.08
2023-01-26T17:16:36.246Z,31.10
2023-01-26T17:19:02.780Z,28.70
2023-01-26T17:21:29.237Z,34.35
2023-01-26T17:23:58.686Z,32.80
2023-01-26T17:26:25.426Z,34.33
2023-01-26T17:28:55.881Z,36.78
2023-01-26T17:31:23.310Z,37.03
2023-01-26T17:33:50.796Z,33.10
2023-01-26T17:36:18.555Z,31.48
2023-01-26T17:38:45.374Z,30.23
2023-01-26T17:41:11.834Z,34.47
2023-01-26T17:43:38.416Z,35.83
2023-01-26T17:46:07.513Z,29.50
2023-01-26T17:48:37.536Z,28.58
2023-01-26T17:51:09.010Z,32.35
2023-01-26T17:53:43.249Z,36.70
2023-01-26T17:56:11.719Z,34.72
2023-01-26T17:58:38.805Z,33.83
2023-01-26T18:01:07.390Z,36.85
2023-01-26T18:03:34.524Z,36.75
2023-01-26T18:06:01.463Z,35.65
2023-01-26T18:08:28.318Z,32.03
2023-01-26T18:11:02.803Z,27.52
2023-01-26T18:13:31.100Z,32.97
2023-01-26T18:15:58.446Z,29.98
2023-01-26T18:18:26.523Z,30.70
2023-01-26T18:20:53.456Z,34.75
2023-01-26T18:23:20.811Z,36.85
2023-01-26T18:25:47.916Z,30.23
2023-01-26T18:28:15.441Z,29.95
2023-01-26T18:30:42.506Z,29.25
2023-01-26T18:33:09.525Z,31.70
2023-01-26T18:35:36.128Z,29.50
2023-01-26T18:38:03.219Z,32.38
2023-01-26T18:40:30.692Z,30.60
2023-01-26T18:42:57.814Z,30.95
2023-01-26T18:45:24.642Z,33.08
2023-01-26T18:47:51.134Z,30.05
2023-01-26T18:50:17.771Z,31.65
2023-01-26T18:52:44.326Z,26.48
2023-01-26T18:55:11.525Z,29.45
2023-01-26T18:57:38.565Z,31.65
2023-01-26T19:00:07.695Z,28.88
2023-01-26T19:02:38.730Z,34.20
2023-01-26T19:05:07.506Z,28.58
2023-01-26T19:07:35.003Z,27.73
2023-01-26T19:10:01.958Z,24.88
2023-01-26T19:12:28.524Z,26.58
2023-01-26T19:14:55.027Z,25.85
2023-01-26T19:17:21.602Z,27.23
2023-01-26T19:19:48.154Z,23.58
2023-01-26T19:22:14.703Z,31.10
2023-01-26T19:24:43.059Z,31.40
2023-01-26T19:27:09.897Z,32.25
2023-01-26T19:29:36.490Z,29.25
2023-01-26T19:32:03.175Z,28.95
2023-01-26T19:34:31.876Z,25.55
2023-01-26T19:36:58.511Z,31.50
2023-01-26T19:39:25.018Z,35.78
2023-01-26T19:41:51.483Z,41.60
2023-01-26T19:44:18.086Z,29.33
2023-01-26T19:46:44.638Z,30.15
2023-01-26T19:49:13.029Z,31.85
2023-01-26T19:51:39.569Z,25.55
2023-01-26T19:54:06.143Z,27.17
2023-01-26T19:56:36.260Z,29.08
2023-01-26T19:59:06.504Z,28.20
2023-01-26T20:01:33.612Z,28.83
2023-01-26T20:04:02.700Z,26.77
2023-01-26T20:06:31.114Z,25.48
2023-01-26T20:08:58.342Z,27.98
2023-01-26T20:11:26.674Z,28.48
2023-01-26T20:14:01.593Z,28.48
2023-01-26T20:16:29.388Z,24.30
2023-01-26T20:18:57.203Z,24.55
2023-01-26T20:21:24.338Z,25.60
2023-01-26T20:23:54.739Z,28.65
2023-01-26T20:26:23.540Z,29.13
2023-01-26T20:28:50.121Z,24.85
2023-01-26T20:31:21.125Z,23.92
2023-01-26T20:33:49.198Z,29.77
2023-01-26T20:36:19.000Z,26.65
2023-01-26T20:38:47.422Z,27.08
2023-01-26T20:41:18.343Z,25.38
2023-01-26T20:43:58.701Z,28.70
2023-01-26T20:46:27.916Z,23.08
2023-01-26T20:48:55.651Z,23.55
2023-01-26T20:51:29.546Z,31.38
2023-01-26T20:53:57.483Z,28.92
2023-01-26T20:56:24.111Z,27.85
2023-01-26T20:58:52.840Z,25.83
2023-01-26T21:01:20.034Z,27.48
2023-01-26T21:03:46.801Z,27.05
2023-01-26T21:06:15.715Z,24.38
2023-01-26T21:08:43.338Z,27.67
2023-01-26T21:11:13.105Z,30.13
2023-01-26T21:13:43.255Z,27.92
2023-01-26T21:16:12.288Z,26.42
2023-01-26T21:18:39.141Z,27.58
2023-01-26T21:21:08.346Z,26.45
2023-01-26T21:23:35.309Z,28.77
2023-01-26T21:26:08.017Z,29.42
2023-01-26T21:28:34.522Z,26.27
2023-01-26T21:31:08.299Z,28.90
2023-01-26T21:33:38.225Z,27.48
2023-01-26T21:36:06.394Z,27.20
2023-01-26T21:38:35.823Z,23.45
2023-01-26T21:41:04.953Z,24.38
2023-01-26T21:43:31.484Z,24.23
2023-01-26T21:45:59.163Z,27.58
2023-01-26T21:48:31.674Z,30.52
2023-01-26T21:51:17.392Z,27.80
2023-01-26T21:53:44.449Z,25.05
2023-01-26T21:56:12.991Z,22.35
2023-01-26T21:58:54.460Z,23.02
2023-01-26T22:01:22.087Z,27.13
2023-01-26T22:03:48.875Z,21.85
2023-01-26T22:06:15.425Z,19.73
2023-01-26T22:08:41.930Z,22.75
2023-01-26T22:11:08.415Z,26.45
2023-01-26T22:13:36.190Z,22.05
2023-01-26T22:16:04.578Z,20.30
2023-01-26T22:18:31.329Z,22.52
2023-01-26T22:20:57.963Z,17.73
2023-01-26T22:23:24.607Z,19.35
2023-01-26T22:25:51.175Z,15.65
2023-01-26T22:28:17.669Z,19.45
2023-01-26T22:30:44.184Z,15.00
2023-01-26T22:33:10.716Z,13.77
2023-01-26T22:35:37.208Z,12.57
2023-01-26T22:38:03.710Z,15.43
2023-01-26T22:40:30.254Z,15.75
2023-01-26T22:42:56.916Z,16.42
2023-01-26T22:45:23.569Z,14.48
2023-01-26T22:47:50.373Z,15.23
2023-01-26T22:50:17.546Z,12.55
2023-01-26T22:52:43.996Z,13.98
2023-01-26T22:55:10.784Z,14.50
2023-01-26T22:57:37.299Z,13.38
2023-01-26T23:00:06.099Z,16.52
2023-01-26T23:02:32.625Z,15.02
2023-01-26T23:04:59.100Z,13.57
2023-01-26T23:07:25.638Z,14.68
2023-01-26T23:09:52.146Z,12.80
2023-01-26T23:12:18.611Z,16.35
2023-01-26T23:14:45.055Z,13.18
2023-01-26T23:17:11.601Z,13.82
2023-01-26T23:19:38.083Z,15.55
2023-01-26T23:22:04.800Z,14.23
2023-01-26T23:24:31.266Z,15.30
2023-01-26T23:26:57.743Z,11.82
2023-01-26T23:29:24.339Z,13.50
2023-01-26T23:31:50.941Z,13.32
2023-01-26T23:34:17.605Z,14.32
2023-01-26T23:36:44.205Z,18.35
2023-01-26T23:39:10.710Z,14.52
2023-01-26T23:41:37.226Z,15.05
2023-01-26T23:44:03.884Z,13.18
2023-01-26T23:46:30.489Z,12.90
2023-01-26T23:48:56.983Z,13.45
2023-01-26T23:51:23.480Z,16.25
2023-01-26T23:53:50.047Z,14.00
2023-01-26T23:56:17.460Z,13.20
2023-01-26T23:58:44.018Z,13.88
